• Join FlightAware (Why Join?)
  • Login
  • US Flag 
08:30AM EDT


 

Airport Tracker/Info


-or-


 

Live Flight TrackerFlight Track Log ✈ RPA3275 ✈ 19-May-2013 ✈ KPHL - KDTW

Flight Track Log - Related Links

Times and Time Zones

All times are in EDT time to prevent confusion due to time zone crossing. See the RPA3275 flight status page for this flight to view local times or setup timezone preferences in your user account.

Time Position Orientation Groundspeed Altitude Reporting Facility
EDT Latitude Longitude Course Direction KTS MPH feet Rate Location/Type
09:22AM 39.8833 -75.2167 270° West 146 168 600  Level Philadelphia TRACON
09:23AM 39.9000 -75.1833 57° Northeast 175 201 2,000 1,740 Climbing Philadelphia TRACON
09:23AM 39.9167 -75.1333 66° East 245 282 3,400 2,400 Climbing Philadelphia TRACON
09:24AM 39.9000 -75.5376 270° West  Level FlightAware Approximate
09:24AM 39.9667 -75.0833 37° Northeast 276 318 6,400  Level Philadelphia TRACON
09:25AM 39.9103 -75.6412 288° West  Level FlightAware Approximate
09:26AM 39.9038 -75.7439 258° West  Level FlightAware Approximate
09:26AM 39.9833 -75.2167 279° West 280 322 10,000  Level Philadelphia TRACON
09:27AM 39.9001 -75.8491 270° West  Level FlightAware Approximate
09:27AM 39.9667 -75.3000 255° West 312 359 10,000  Level Philadelphia TRACON
09:28AM 39.9503 -75.4364 261° West 315 362 10,000 420 Level New York Center
09:29AM 39.9361 -75.5331 259° West 310 357 11,000 1,920 Climbing New York Center
09:30AM 39.9186 -75.6564 260° West 315 362 13,900 1,980 Climbing New York Center
09:31AM 39.9161 -75.7617 268° West 315 362 15,000 540 Climbing New York Center
09:32AM 39.9294 -75.8900 278° West 327 376 15,000 960 Level New York Center
09:33AM 39.9456 -75.9967 281° West 333 383 17,000 1,980 Climbing New York Center
09:34AM 39.9628 -76.1253 280° West 338 389 19,100 2,100 Climbing New York Center
09:35AM 39.9717 -76.2481 275° West 338 389 21,200 1,980 Climbing New York Center
09:36AM 39.9867 -76.3739 279° West 343 395 23,100 1,740 Climbing New York Center
09:37AM 40.0033 -76.5053 279° West 358 412 24,800 1,560 Climbing New York Center
09:38AM 40.0156 -76.6392 277° West 369 425 26,200 1,260 Climbing New York Center
09:39AM 40.0294 -76.7758 278° West 374 430 27,400 1,200 Climbing New York Center
09:40AM 40.0453 -76.9156 278° West 380 437 28,700 1,200 Climbing New York Center
09:41AM 40.0586 -77.0578 277° West 391 450 29,800 1,020 Climbing New York Center
09:42AM 40.0736 -77.2031 278° West 397 457 30,800 1,080 Climbing New York Center
09:43AM 40.0883 -77.3536 277° West 409 471 32,000 360 Climbing New York Center
09:45AM 40.1217 -77.6697 278° West 409 471 32,000  Level Cleveland Center
09:46AM 40.1356 -77.8131 277° West 409 471 32,000  Level Cleveland Center
09:47AM 40.1375 -77.9814 271° West 409 471 32,000  Level Cleveland Center
09:48AM 40.1386 -78.1281 271° West 409 471 32,000  Level Cleveland Center
09:49AM 40.1375 -78.2747 269° West 409 471 32,000  Level Cleveland Center
09:50AM 40.1406 -78.4214 272° West 409 471 32,000  Level Cleveland Center
09:51AM 40.1411 -78.5706 270° West 409 471 32,000  Level Cleveland Center
09:52AM 40.1561 -78.7169 278° West 404 465 32,000  Level Cleveland Center
09:53AM 40.1936 -78.8544 290° West 396 456 32,000  Level Cleveland Center
09:54AM 40.2292 -78.9950 288° West 401 461 32,000  Level Cleveland Center
09:55AM 40.2664 -79.1356 289° West 401 461 32,000  Level Cleveland Center
09:56AM 40.3036 -79.2736 290° West 406 467 32,000  Level Cleveland Center
09:57AM 40.3383 -79.3983 290° West 406 467 32,000  Level Cleveland Center
09:58AM 40.3750 -79.5419 289° West 406 467 32,000  Level Cleveland Center
09:59AM 40.4097 -79.6806 288° West 406 467 32,000  Level Cleveland Center
10:00AM 40.4461 -79.8192 289° West 406 467 32,000  Level Cleveland Center
10:01AM 40.4825 -79.9633 288° West 401 461 32,000  Level Cleveland Center
10:02AM 40.5186 -80.1214 287° West 407 468 32,000  Level Cleveland Center
10:03AM 40.5544 -80.2633 288° West 412 474 32,000  Level Cleveland Center
10:04AM 40.5881 -80.3861 290° West 412 474 32,000 -1,020 Level Cleveland Center
10:05AM 40.6194 -80.5339 286° West 412 474 30,000 -1,020 Descending Cleveland Center
10:06AM 40.6528 -80.6733 288° West 412 474 30,000  Level Cleveland Center
10:07AM 40.7131 -80.8158 299° West 406 467 30,000  Level Cleveland Center
10:08AM 40.7733 -80.9367 303° West 406 467 30,000  Level Cleveland Center
10:09AM 40.8311 -81.0689 300° West 406 467 30,000  Level Cleveland Center
10:10AM 40.8931 -81.1928 304° West 406 467 30,000  Level Cleveland Center
10:11AM 40.9528 -81.3172 302° West 406 467 30,000  Level Cleveland Center
10:12AM 41.0144 -81.4472 302° West 411 473 30,000 -420 Level Cleveland Center
10:13AM 41.0739 -81.5719 302° West 411 473 29,200 -900 Descending Cleveland Center
10:14AM 41.1394 -81.6942 305° West 411 473 28,200 -1,020 Descending Cleveland Center
10:15AM 41.1967 -81.8167 302° West 411 473 27,200 -1,020 Descending Cleveland Center
10:16AM 41.2536 -81.9392 302° West 400 460 26,200 -1,140 Descending Cleveland Center
10:17AM 41.3125 -82.0567 304° West 400 460 25,000 -1,500 Descending Cleveland Center
10:18AM 41.3653 -82.1767 300° West 390 449 23,200 -1,920 Descending Cleveland Center
10:19AM 41.4283 -82.2808 309° West 379 436 21,200 -1,980 Descending Cleveland Center
10:20AM 41.4892 -82.3850 308° West 364 419 19,300 -1,860 Descending Cleveland Center
10:21AM 41.5503 -82.4839 310° West 359 413 17,500 -1,800 Descending Cleveland Center
10:22AM 41.5908 -82.5489 310° West 341 392 16,300 -1,920 Descending Cleveland Center
10:22AM 41.6069 -82.5853 301° West 347 399 15,600 -1,860 Descending Cleveland Center
10:23AM 41.6636 -82.6789 309° West 331 381 13,900 -1,740 Descending Cleveland Center
10:24AM 41.7181 -82.7697 309° West 324 373 12,200 -960 Descending Cleveland Center
10:25AM 41.7853 -82.8556 316° Northwest 325 374 12,000 -120 Descending Cleveland Center
10:26AM 41.8606 -82.9447 319° Northwest 323 372 12,000  Level Cleveland Center
10:27AM 41.9197 -83.0139 319° Northwest 320 368 12,000  Level Cleveland Center
10:28AM 41.9828 -83.0861 320° Northwest 294 338 12,000  Level Cleveland Center
10:29AM 42.0356 -83.1497 318° Northwest 250 288 12,000  Level Cleveland Center
10:30AM 42.0822 -83.2047 319° Northwest 249 287 12,000  Level Cleveland Center
10:30AM 42.0822 -83.2047 319° Northwest 229 264 12,000 -720 Level Cleveland Center
10:31AM 42.1356 -83.2350 337° Northwest 225 259 11,300 -960 Descending Cleveland Center
10:32AM 42.2064 -83.2378 358° North 239 275 10,100 -1,260 Descending Cleveland Center
10:33AM 42.2636 -83.1981 27° Northeast 234 269 8,800 -1,260 Descending Cleveland Center
10:34AM 42.3150 -83.1469 36° Northeast 229 264 7,600 -1,260 Descending Cleveland Center
10:35AM 42.3678 -83.1125 26° Northeast 226 260 6,300 -1,380 Descending Cleveland Center
10:36AM 42.3786 -83.1833 282° West 201 231 4,800 -1,500 Descending Cleveland Center